Time;durP1;ratioP1;P1;durP2;ratioP2;P2;SDS_P1;SDS_P2;PMS_P1;PMS_P2;Temp;Humidity;BMP_temperature;BMP_pressure;BME280_temperature;BME280_humidity;BME280_pressure;Samples;Min_cycle;Max_cycle;Signal;HPM_P1;HPM_P2
2023/07/01 00:01:01;;;;;;;3.63;1.80;;;;;;;17.64;55.28;100614.25;4996370;28;20031;-87
2023/07/01 00:03:30;;;;;;;4.03;1.60;;;;;;;17.61;55.22;100606.56;4995999;28;20122;-87
2023/07/01 00:05:58;;;;;;;4.27;1.60;;;;;;;17.59;55.57;100606.00;4996550;28;20285;-87
2023/07/01 00:08:24;;;;;;;4.45;1.58;;;;;;;17.60;56.01;100604.91;4978761;28;20481;-87
2023/07/01 00:10:53;;;;;;;3.80;1.52;;;;;;;17.61;55.68;100592.00;4978635;28;20034;-87
2023/07/01 00:13:21;;;;;;;3.55;1.70;;;;;;;17.66;56.11;100603.84;4995940;28;20030;-87
2023/07/01 00:15:51;;;;;;;3.63;1.77;;;;;;;17.61;56.05;100590.13;4994717;28;20026;-87
2023/07/01 00:18:17;;;;;;;3.77;1.90;;;;;;;17.58;56.27;100581.59;4978394;28;20093;-87
2023/07/01 00:20:44;;;;;;;3.70;1.70;;;;;;;17.60;56.36;100585.72;4994060;28;20034;-85
2023/07/01 00:23:12;;;;;;;10.20;1.60;;;;;;;17.63;56.69;100578.88;4994159;28;20041;-85
2023/07/01 00:25:38;;;;;;;6.40;1.77;;;;;;;17.64;57.28;100580.50;4996009;28;20140;-87
2023/07/01 00:28:03;;;;;;;2.47;1.40;;;;;;;17.64;57.14;100577.75;4994494;28;20488;-87
2023/07/01 00:30:29;;;;;;;6.80;1.70;;;;;;;17.58;57.29;100571.41;4994512;28;20030;-87
2023/07/01 00:32:54;;;;;;;3.20;1.67;;;;;;;17.59;57.84;100569.53;4995595;28;20022;-87
2023/07/01 00:35:20;;;;;;;4.07;1.77;;;;;;;17.59;57.73;100561.28;4995569;28;20386;-87
2023/07/01 00:37:45;;;;;;;4.10;1.67;;;;;;;17.59;57.94;100562.09;4994427;28;20056;-87
2023/07/01 00:40:11;;;;;;;6.40;1.73;;;;;;;17.64;58.04;100564.03;4994528;28;20092;-87
2023/07/01 00:42:41;;;;;;;4.83;1.67;;;;;;;17.61;58.35;100564.59;4962695;28;20037;-87
2023/07/01 00:45:07;;;;;;;9.88;2.08;;;;;;;17.56;58.44;100548.13;4995434;28;20030;-87
2023/07/01 00:47:33;;;;;;;5.53;1.35;;;;;;;17.56;58.88;100556.34;4977725;28;20498;-87
2023/07/01 00:50:01;;;;;;;5.63;1.63;;;;;;;17.49;58.77;100549.19;4995425;28;20034;-87
2023/07/01 00:52:27;;;;;;;7.45;2.30;;;;;;;17.53;59.39;100561.25;4962640;28;20034;-87
2023/07/01 00:54:56;;;;;;;5.75;1.77;;;;;;;17.42;60.19;100548.63;4945773;28;20125;-87
2023/07/01 00:57:21;;;;;;;3.70;1.80;;;;;;;17.29;61.78;100549.13;4977318;28;20057;-87
2023/07/01 00:59:47;;;;;;;6.63;2.13;;;;;;;17.18;63.15;100545.50;4995829;28;20445;-87
2023/07/01 01:02:21;;;;;;;4.57;1.80;;;;;;;17.03;63.56;100534.47;4993611;28;20514;-87
2023/07/01 01:05:02;;;;;;;6.80;2.00;;;;;;;17.12;63.12;100539.16;4977814;28;20030;-87
2023/07/01 01:07:46;;;;;;;6.15;1.90;;;;;;;17.25;63.32;100543.34;4994424;28;20389;-87
2023/07/01 01:10:17;;;;;;;7.70;1.80;;;;;;;17.31;63.61;100525.00;4993583;28;20096;-87
2023/07/01 01:12:45;;;;;;;4.47;1.73;;;;;;;17.38;62.81;100531.06;4977476;28;20475;-89
2023/07/01 01:15:11;;;;;;;5.97;1.90;;;;;;;17.43;62.64;100533.81;4993592;28;20471;-88
2023/07/01 01:17:43;;;;;;;5.35;2.00;;;;;;;17.46;62.96;100521.47;4993544;28;20475;-89
2023/07/01 01:20:18;;;;;;;6.53;1.80;;;;;;;17.47;62.74;100517.66;4993293;28;20474;-89
2023/07/01 01:23:01;;;;;;;6.20;1.88;;;;;;;17.50;63.07;100526.16;4978188;28;20383;-88
2023/07/01 01:25:29;;;;;;;5.13;1.47;;;;;;;17.47;63.45;100514.91;4993779;28;20026;-89
2023/07/01 01:27:59;;;;;;;5.53;1.60;;;;;;;17.50;63.94;100509.69;4977236;28;20038;-88
2023/07/01 01:30:33;;;;;;;5.70;1.90;;;;;;;17.48;64.69;100503.66;4994673;28;20038;-89
2023/07/01 01:33:06;;;;;;;5.32;1.67;;;;;;;17.47;65.89;100520.38;4977399;28;20524;-89
2023/07/01 01:35:31;;;;;;;4.93;2.00;;;;;;;17.49;67.62;100510.81;4962143;28;20065;-88
2023/07/01 01:38:03;;;;;;;3.93;1.70;;;;;;;17.07;71.34;100509.00;4994078;28;20077;-89
2023/07/01 01:40:46;;;;;;;5.82;2.00;;;;;;;16.71;75.57;100506.03;4994455;28;20110;-89
2023/07/01 01:43:41;;;;;;;7.90;2.00;;;;;;;16.71;75.49;100508.78;4993242;28;20154;-88
2023/07/01 01:46:07;;;;;;;7.55;2.35;;;;;;;16.80;75.25;100500.88;4959816;28;20042;-88
2023/07/01 01:48:39;;;;;;;6.77;2.30;;;;;;;16.89;74.80;100493.84;4994509;28;20046;-87
2023/07/01 01:51:07;;;;;;;6.65;2.42;;;;;;;16.96;74.48;100494.44;4992985;28;20066;-88
2023/07/01 01:53:43;;;;;;;5.55;1.90;;;;;;;17.01;73.53;100490.88;4976761;28;20101;-88
2023/07/01 01:56:12;;;;;;;6.15;2.05;;;;;;;17.05;73.96;100494.75;4994716;28;20060;-88
2023/07/01 01:58:47;;;;;;;4.65;2.10;;;;;;;17.10;73.30;100486.53;4960800;28;20129;-88
2023/07/01 02:01:20;;;;;;;5.23;2.00;;;;;;;17.12;73.56;100484.34;4994680;28;20026;-88
2023/07/01 02:03:48;;;;;;;5.85;1.70;;;;;;;17.09;73.86;100482.13;4977126;28;20037;-88
2023/07/01 02:06:13;;;;;;;5.88;1.90;;;;;;;17.10;74.39;100482.97;4992992;28;20041;-88
2023/07/01 02:08:41;;;;;;;5.37;2.10;;;;;;;17.10;74.40;100486.53;4992675;28;20054;-88
2023/07/01 02:11:14;;;;;;;5.35;1.90;;;;;;;17.08;74.38;100479.66;4977228;28;20030;-88
2023/07/01 02:13:42;;;;;;;5.68;2.10;;;;;;;17.06;75.08;100482.66;4977261;28;20030;-88
2023/07/01 02:16:08;;;;;;;7.65;2.10;;;;;;;17.08;75.41;100487.88;4992928;28;20034;-88
2023/07/01 02:18:35;;;;;;;6.63;1.93;;;;;;;17.04;76.31;100473.06;4992532;28;20041;-87
2023/07/01 02:21:01;;;;;;;6.10;2.47;;;;;;;17.01;77.39;100467.03;4977195;28;20030;-88
2023/07/01 02:23:28;;;;;;;5.40;2.50;;;;;;;16.96;78.23;100469.75;4994198;28;20033;-87
2023/07/01 02:25:56;;;;;;;5.88;2.33;;;;;;;16.89;79.05;100471.91;4977141;28;20022;-88
2023/07/01 02:28:22;;;;;;;8.85;2.50;;;;;;;16.83;80.20;100459.25;4992994;28;20410;-88
2023/07/01 02:30:47;;;;;;;5.20;2.13;;;;;;;16.78;80.65;100454.56;4993632;28;20030;-87
2023/07/01 02:33:18;;;;;;;5.67;2.00;;;;;;;16.72;80.89;100457.56;4992438;28;20073;-88
2023/07/01 02:35:43;;;;;;;7.43;2.05;;;;;;;16.69;81.32;100450.69;4992323;28;20038;-88
2023/07/01 02:38:14;;;;;;;7.83;2.10;;;;;;;16.66;85.05;100432.84;4992403;28;20046;-88
2023/07/01 02:40:44;;;;;;;6.07;1.70;;;;;;;16.57;89.75;100444.59;4961571;28;20137;-88
2023/07/01 02:43:10;;;;;;;7.38;2.17;;;;;;;16.44;91.88;100440.41;4977189;28;20466;-88
2023/07/01 02:45:35;;;;;;;8.90;1.90;;;;;;;16.40;93.94;100436.53;4979565;28;20033;-88
2023/07/01 02:48:04;;;;;;;6.03;1.70;;;;;;;16.18;96.85;100431.19;4996573;28;20379;-88
2023/07/01 02:50:30;;;;;;;8.18;2.22;;;;;;;16.17;97.01;100435.88;4996592;28;20026;-88
2023/07/01 02:52:58;;;;;;;6.50;2.00;;;;;;;16.06;99.63;100439.59;4996290;28;20459;-89
2023/07/01 02:55:29;;;;;;;4.57;2.00;;;;;;;15.95;100.00;100442.25;4997144;28;20026;-87
2023/07/01 02:57:54;;;;;;;4.32;2.00;;;;;;;15.86;100.00;100434.81;4996037;28;20077;-88
2023/07/01 03:00:21;;;;;;;3.70;2.00;;;;;;;15.81;100.00;100430.13;4996511;28;20463;-88
2023/07/01 03:02:50;;;;;;;4.75;2.25;;;;;;;15.85;100.00;100441.34;4980476;28;20033;-88
2023/07/01 03:05:23;;;;;;;5.57;1.90;;;;;;;15.90;100.00;100431.28;4995916;28;20039;-88
2023/07/01 03:07:51;;;;;;;3.00;1.92;;;;;;;15.84;100.00;100429.59;4979848;28;20038;-88
2023/07/01 03:10:20;;;;;;;3.28;1.95;;;;;;;15.71;100.00;100419.06;4997545;28;20223;-88
2023/07/01 03:12:47;;;;;;;4.13;1.80;;;;;;;15.70;100.00;100425.59;4995806;28;20470;-88
2023/07/01 03:15:15;;;;;;;6.57;2.20;;;;;;;15.60;100.00;100421.69;4979691;28;20427;-88
2023/07/01 03:17:41;;;;;;;6.97;2.20;;;;;;;15.52;100.00;100427.63;4963249;28;20023;-88
2023/07/01 03:20:08;;;;;;;4.20;2.53;;;;;;;15.43;100.00;100423.72;4996074;28;20431;-88
2023/07/01 03:22:39;;;;;;;3.70;2.15;;;;;;;15.42;100.00;100411.13;4995775;28;20018;-88
2023/07/01 03:25:07;;;;;;;5.57;2.13;;;;;;;15.49;100.00;100411.75;4996164;28;20120;-87
2023/07/01 03:27:33;;;;;;;5.30;2.00;;;;;;;15.44;100.00;100409.78;4995647;28;20382;-88
2023/07/01 03:29:59;;;;;;;5.80;2.20;;;;;;;15.44;100.00;100404.31;4995354;28;20034;-88
2023/07/01 03:32:24;;;;;;;3.45;2.00;;;;;;;15.41;100.00;100396.66;4997363;28;20033;-88
2023/07/01 03:34:51;;;;;;;4.00;2.00;;;;;;;15.48;100.00;100399.16;4979263;28;20022;-88
2023/07/01 03:37:16;;;;;;;5.03;2.20;;;;;;;15.48;100.00;100403.81;4962919;28;20042;-88
2023/07/01 03:39:44;;;;;;;3.53;2.20;;;;;;;15.48;100.00;100407.34;4996995;28;20089;-88
2023/07/01 03:42:09;;;;;;;4.78;2.33;;;;;;;15.37;100.00;100405.63;4996234;28;20038;-88
2023/07/01 03:44:35;;;;;;;6.70;2.80;;;;;;;15.07;100.00;100391.38;4978452;28;20398;-88
2023/07/01 03:47:00;;;;;;;3.60;2.40;;;;;;;14.88;100.00;100390.03;4995314;28;20109;-88
2023/07/01 03:49:34;;;;;;;5.60;2.77;;;;;;;14.77;100.00;100399.22;4996199;28;20058;-88
2023/07/01 03:51:59;;;;;;;7.32;3.22;;;;;;;14.69;100.00;100393.13;4963970;28;20030;-89
2023/07/01 03:54:25;;;;;;;4.63;3.13;;;;;;;14.62;100.00;100386.19;4963118;28;20085;-88
2023/07/01 03:56:51;;;;;;;4.13;3.07;;;;;;;14.55;100.00;100391.81;4974248;28;20058;-88
2023/07/01 03:59:19;;;;;;;4.37;3.27;;;;;;;14.52;100.00;100395.84;4976991;28;20758;-88
2023/07/01 04:01:45;;;;;;;5.15;3.15;;;;;;;14.51;100.00;100390.66;4991537;28;20038;-88
2023/07/01 04:04:10;;;;;;;7.10;3.80;;;;;;;14.50;100.00;100389.03;4991467;28;20034;-88
2023/07/01 04:06:35;;;;;;;4.97;3.37;;;;;;;14.52;100.00;100384.13;4975839;28;20029;-88
2023/07/01 04:09:12;;;;;;;6.20;3.87;;;;;;;14.52;100.00;100378.66;4959534;28;20038;-87
2023/07/01 04:11:41;;;;;;;4.93;3.95;;;;;;;14.49;100.00;100379.16;4961510;28;20042;-87
2023/07/01 04:14:06;;;;;;;8.13;4.50;;;;;;;14.49;100.00;100374.53;4959409;28;20035;-87
2023/07/01 04:16:32;;;;;;;5.83;4.17;;;;;;;14.43;100.00;100375.53;4975638;28;20081;-88
2023/07/01 04:18:59;;;;;;;7.05;4.45;;;;;;;14.42;100.00;100362.16;4960084;28;20129;-87
2023/07/01 04:21:25;;;;;;;7.78;4.03;;;;;;;14.39;100.00;100356.13;4960105;28;20038;-87
2023/07/01 04:23:51;;;;;;;5.00;3.83;;;;;;;14.39;100.00;100356.13;4975951;28;20386;-86
2023/07/01 04:26:16;;;;;;;4.47;3.43;;;;;;;14.38;100.00;100357.19;4975349;28;20035;-87
2023/07/01 04:28:41;;;;;;;4.17;2.87;;;;;;;14.32;100.00;100365.56;4976042;28;20472;-85
2023/07/01 04:31:07;;;;;;;3.93;3.27;;;;;;;14.34;100.00;100364.22;4974722;28;20479;-86
2023/07/01 04:33:32;;;;;;;5.13;3.50;;;;;;;14.32;100.00;100349.19;4976008;28;20387;-86
2023/07/01 04:35:58;;;;;;;5.70;3.57;;;;;;;14.34;100.00;100361.50;4975690;28;20027;-86
2023/07/01 04:38:23;;;;;;;6.10;3.63;;;;;;;14.34;100.00;100353.31;4974856;28;20046;-86
2023/07/01 04:40:51;;;;;;;5.60;4.07;;;;;;;14.38;100.00;100350.94;4975852;28;20035;-86
2023/07/01 04:43:19;;;;;;;6.37;3.90;;;;;;;14.38;100.00;100346.28;4991768;28;20035;-86
2023/07/01 04:45:44;;;;;;;4.47;3.80;;;;;;;14.46;100.00;100353.19;4974730;28;20027;-86
2023/07/01 04:48:10;;;;;;;4.90;3.80;;;;;;;14.43;100.00;100353.72;4976618;28;20110;-86
2023/07/01 04:50:36;;;;;;;4.60;3.53;;;;;;;14.42;100.00;100348.50;4975979;28;20303;-86
2023/07/01 04:53:04;;;;;;;4.78;3.55;;;;;;;14.41;100.00;100342.22;4990475;28;20043;-86
2023/07/01 04:55:32;;;;;;;3.95;3.33;;;;;;;14.45;100.00;100340.63;4990646;28;20050;-82
2023/07/01 04:57:57;;;;;;;6.70;3.53;;;;;;;14.48;100.00;100340.13;4978201;28;20042;-81
2023/07/01 05:00:23;;;;;;;5.22;3.63;;;;;;;14.53;100.00;100347.56;4977790;28;20097;-81
2023/07/01 05:02:48;;;;;;;4.73;3.33;;;;;;;14.56;100.00;100334.22;4995214;28;20089;-81
2023/07/01 05:05:14;;;;;;;3.63;3.33;;;;;;;14.60;100.00;100337.28;4993818;28;20046;-80
2023/07/01 05:07:39;;;;;;;5.33;3.40;;;;;;;14.63;100.00;100325.03;4977198;28;20034;-81
2023/07/01 05:10:08;;;;;;;4.40;3.10;;;;;;;14.61;100.00;100336.22;4995309;28;20065;-80
2023/07/01 05:12:33;;;;;;;5.50;3.55;;;;;;;14.64;100.00;100334.88;4994724;28;20109;-86
2023/07/01 05:14:59;;;;;;;5.75;3.63;;;;;;;14.63;100.00;100330.50;4994270;28;20482;-86
2023/07/01 05:17:24;;;;;;;7.57;3.70;;;;;;;14.59;100.00;100332.88;4993295;28;20490;-86
2023/07/01 05:19:58;;;;;;;5.07;3.50;;;;;;;14.58;100.00;100333.97;4993537;28;20038;-86
2023/07/01 05:22:24;;;;;;;5.95;3.33;;;;;;;14.55;100.00;100329.00;4994809;28;20031;-86
2023/07/01 05:24:49;;;;;;;6.30;3.40;;;;;;;14.55;100.00;100332.56;4977617;28;20034;-86
2023/07/01 05:27:14;;;;;;;10.18;3.38;;;;;;;14.52;100.00;100324.06;4961646;28;20466;-86
2023/07/01 05:29:42;;;;;;;4.73;3.40;;;;;;;14.53;100.00;100326.53;4993596;28;20088;-86
2023/07/01 05:32:08;;;;;;;6.65;3.55;;;;;;;14.55;100.00;100327.09;4977770;28;20482;-86
2023/07/01 05:34:35;;;;;;;5.00;3.40;;;;;;;14.56;100.00;100317.84;4960856;28;20042;-85
2023/07/01 05:37:01;;;;;;;5.15;3.28;;;;;;;14.54;100.00;100322.75;4993588;28;20367;-86
2023/07/01 05:39:30;;;;;;;6.23;3.57;;;;;;;14.53;100.00;100312.88;4994215;28;20031;-86
2023/07/01 05:41:56;;;;;;;4.97;3.70;;;;;;;14.57;100.00;100324.97;4977243;28;20386;-86
2023/07/01 05:44:24;;;;;;;5.55;3.63;;;;;;;14.55;100.00;100324.38;4993132;28;20023;-86
2023/07/01 05:46:52;;;;;;;4.65;4.00;;;;;;;14.53;100.00;100309.34;4993187;28;20038;-86
2023/07/01 05:49:21;;;;;;;4.63;3.67;;;;;;;14.55;100.00;100318.91;4994423;28;20034;-86
2023/07/01 05:51:46;;;;;;;5.68;3.83;;;;;;;14.57;100.00;100313.19;4993369;28;20065;-85
2023/07/01 05:54:12;;;;;;;8.20;3.70;;;;;;;14.56;100.00;100306.09;4977066;28;20125;-86
2023/07/01 05:56:38;;;;;;;6.63;4.05;;;;;;;14.60;100.00;100312.72;4989256;28;20054;-86
2023/07/01 05:59:06;;;;;;;7.83;4.13;;;;;;;14.61;100.00;100310.78;4973594;28;20023;-86
2023/07/01 06:01:31;;;;;;;6.88;3.95;;;;;;;14.66;100.00;100308.13;4957518;28;20498;-86
2023/07/01 06:03:56;;;;;;;6.07;4.00;;;;;;;14.69;100.00;100313.94;4957547;28;20074;-86
2023/07/01 06:06:22;;;;;;;5.22;3.92;;;;;;;14.75;100.00;100314.81;4972860;28;20031;-86
2023/07/01 06:08:48;;;;;;;5.90;3.83;;;;;;;14.76;100.00;100304.72;4989632;28;20185;-86
2023/07/01 06:11:21;;;;;;;4.37;3.50;;;;;;;14.76;100.00;100302.78;4973272;28;20169;-86
2023/07/01 06:13:47;;;;;;;4.30;3.58;;;;;;;14.85;100.00;100308.63;4973741;28;20070;-86
2023/07/01 06:16:14;;;;;;;7.00;4.03;;;;;;;14.95;100.00;100306.00;4973176;28;20035;-86
2023/07/01 06:18:40;;;;;;;6.50;3.55;;;;;;;14.91;100.00;100300.25;4973100;28;20402;-86
2023/07/01 06:21:06;;;;;;;4.63;3.67;;;;;;;14.97;100.00;100303.00;4977229;28;20187;-86
2023/07/01 06:23:36;;;;;;;4.13;3.73;;;;;;;14.99;100.00;100298.94;4993153;28;20119;-87
2023/07/01 06:26:03;;;;;;;4.97;3.50;;;;;;;14.99;100.00;100298.13;4961150;28;20075;-86
2023/07/01 06:28:28;;;;;;;6.80;3.65;;;;;;;15.03;100.00;100289.16;4993494;28;20031;-86
2023/07/01 06:30:53;;;;;;;4.40;3.43;;;;;;;15.05;100.00;100295.16;4976998;28;20037;-86
2023/07/01 06:33:19;;;;;;;4.10;3.65;;;;;;;15.02;100.00;100284.75;4977181;28;20502;-86
2023/07/01 06:35:47;;;;;;;5.70;3.40;;;;;;;15.02;100.00;100290.22;4977244;28;20023;-86
2023/07/01 06:38:13;;;;;;;4.55;3.42;;;;;;;15.07;100.00;100286.72;4976774;28;20081;-86
2023/07/01 06:40:38;;;;;;;6.93;3.20;;;;;;;15.05;100.00;100289.72;4976767;28;20062;-86
2023/07/01 06:43:04;;;;;;;5.15;3.20;;;;;;;15.06;100.00;100282.34;4976921;28;20097;-86
2023/07/01 06:45:31;;;;;;;6.07;2.97;;;;;;;15.02;100.00;100281.22;4993908;28;20052;-86
2023/07/01 06:47:57;;;;;;;6.22;2.95;;;;;;;15.01;100.00;100299.50;4960577;28;20026;-86
2023/07/01 06:50:22;;;;;;;3.75;2.90;;;;;;;14.96;100.00;100299.47;4976867;28;20383;-86
2023/07/01 06:52:48;;;;;;;3.17;2.63;;;;;;;14.97;100.00;100283.88;4992739;28;20027;-86
2023/07/01 06:55:14;;;;;;;3.60;2.73;;;;;;;14.98;100.00;100288.28;4976981;28;20129;-86
2023/07/01 06:57:41;;;;;;;4.80;2.92;;;;;;;15.03;100.00;100296.53;4976395;28;20055;-86
2023/07/01 07:00:12;;;;;;;4.07;2.95;;;;;;;15.05;100.00;100297.09;4976295;28;20054;-86
2023/07/01 07:02:38;;;;;;;3.53;3.08;;;;;;;15.01;100.00;100291.31;4976249;28;20031;-86
2023/07/01 07:05:05;;;;;;;6.13;2.80;;;;;;;15.00;100.00;100299.75;4976399;28;20435;-86
2023/07/01 07:07:30;;;;;;;3.87;2.83;;;;;;;15.03;100.00;100293.81;4976170;28;20089;-86
2023/07/01 07:09:56;;;;;;;3.53;2.88;;;;;;;15.04;100.00;100290.81;4977431;28;20035;-86
2023/07/01 07:12:21;;;;;;;5.33;2.73;;;;;;;15.07;100.00;100294.91;4944486;28;20031;-86
2023/07/01 07:14:46;;;;;;;5.73;3.30;;;;;;;15.08;100.00;100280.19;4992364;28;20121;-86
2023/07/01 07:17:15;;;;;;;4.90;3.20;;;;;;;15.08;100.00;100281.00;4992175;28;20117;-86
2023/07/01 07:19:40;;;;;;;7.17;3.70;;;;;;;15.11;100.00;100290.59;4976014;28;20286;-86
2023/07/01 07:22:06;;;;;;;4.25;3.15;;;;;;;15.13;100.00;100287.59;4977227;28;20096;-86
2023/07/01 07:24:31;;;;;;;3.93;2.80;;;;;;;15.13;100.00;100279.41;4975757;28;20097;-86
2023/07/01 07:27:00;;;;;;;3.40;2.87;;;;;;;15.19;100.00;100283.81;4992165;28;20117;-86
2023/07/01 07:29:33;;;;;;;4.00;3.00;;;;;;;15.20;100.00;100275.34;4993100;28;20459;-86
2023/07/01 07:31:59;;;;;;;4.00;2.95;;;;;;;15.24;100.00;100284.69;4976245;28;20023;-86
2023/07/01 07:34:25;;;;;;;3.70;2.90;;;;;;;15.24;100.00;100281.13;4976003;28;20043;-86
2023/07/01 07:36:50;;;;;;;3.17;2.87;;;;;;;15.25;100.00;100271.84;4959969;28;20042;-87
2023/07/01 07:39:18;;;;;;;3.83;3.40;;;;;;;15.25;100.00;100277.31;4975966;28;20117;-87
2023/07/01 07:41:45;;;;;;;4.57;2.85;;;;;;;15.30;100.00;100273.81;4975739;28;20168;-87
2023/07/01 07:44:15;;;;;;;5.40;3.42;;;;;;;15.37;100.00;100277.16;4976010;28;20019;-86
2023/07/01 07:46:44;;;;;;;5.15;3.20;;;;;;;15.39;100.00;100258.56;4960316;28;20053;-87
2023/07/01 07:49:12;;;;;;;3.90;3.30;;;;;;;15.48;100.00;100272.59;4992456;28;20034;-87
2023/07/01 07:51:42;;;;;;;3.43;2.80;;;;;;;15.50;100.00;100268.50;4975996;28;20077;-86
2023/07/01 07:54:10;;;;;;;3.00;2.67;;;;;;;15.53;100.00;100273.44;4975730;28;20050;-87
2023/07/01 07:56:36;;;;;;;3.85;2.92;;;;;;;15.57;100.00;100266.34;4991450;28;20054;-87
2023/07/01 07:59:03;;;;;;;4.70;3.00;;;;;;;15.71;100.00;100271.38;4976156;28;20451;-87
2023/07/01 08:01:35;;;;;;;4.55;3.13;;;;;;;15.80;100.00;100261.63;4992335;28;20459;-88
2023/07/01 08:04:00;;;;;;;4.20;2.88;;;;;;;15.87;100.00;100264.09;4976571;28;20031;-88
2023/07/01 08:06:28;;;;;;;4.67;2.93;;;;;;;15.90;100.00;100266.31;4975546;28;20169;-89
2023/07/01 08:08:56;;;;;;;3.85;2.65;;;;;;;15.90;100.00;100260.81;4958966;28;20039;-88
2023/07/01 08:11:24;;;;;;;5.47;3.08;;;;;;;15.95;100.00;100258.94;4975319;28;20031;-88
2023/07/01 08:13:50;;;;;;;4.80;2.70;;;;;;;15.91;100.00;100263.28;4976350;28;20081;-88
2023/07/01 08:16:15;;;;;;;3.03;2.72;;;;;;;15.91;100.00;100259.75;4991120;28;20041;-88
2023/07/01 08:18:41;;;;;;;3.47;2.60;;;;;;;15.87;100.00;100264.94;4991087;28;20026;-88
2023/07/01 08:21:14;;;;;;;3.33;2.72;;;;;;;16.01;100.00;100256.25;4958726;28;20039;-88
2023/07/01 08:23:39;;;;;;;3.50;2.77;;;;;;;16.08;100.00;100259.56;4976593;28;20460;-88
2023/07/01 08:26:05;;;;;;;2.53;2.10;;;;;;;16.13;100.00;100260.41;4975618;28;20045;-89
2023/07/01 08:28:31;;;;;;;2.50;2.30;;;;;;;16.13;100.00;100260.41;4974937;28;20039;-88
2023/07/01 08:30:58;;;;;;;2.50;2.30;;;;;;;16.09;100.00;100258.47;4974677;28;20130;-88
2023/07/01 08:33:23;;;;;;;2.55;2.35;;;;;;;16.11;100.00;100259.84;4991217;28;20037;-89
2023/07/01 08:35:52;;;;;;;2.60;2.40;;;;;;;16.15;100.00;100262.91;4975146;28;20030;-88
2023/07/01 08:38:17;;;;;;;2.80;2.55;;;;;;;16.18;100.00;100256.88;4976856;28;20042;-88
2023/07/01 08:40:43;;;;;;;2.83;2.53;;;;;;;16.18;100.00;100254.16;4990670;28;20026;-87
2023/07/01 08:43:11;;;;;;;2.78;2.30;;;;;;;16.17;100.00;100259.88;4973834;28;20041;-87
2023/07/01 08:45:38;;;;;;;2.72;1.88;;;;;;;16.16;100.00;100256.31;4958756;28;20089;-87
2023/07/01 08:48:08;;;;;;;2.20;2.00;;;;;;;16.11;100.00;100265.31;4975828;28;20065;-87
2023/07/01 08:50:52;;;;;;;2.78;2.40;;;;;;;16.13;100.00;100252.19;4991216;28;20031;-87
2023/07/01 08:53:19;;;;;;;2.67;2.42;;;;;;;16.16;100.00;100255.50;4974315;28;20513;-86
2023/07/01 08:55:45;;;;;;;2.28;2.08;;;;;;;16.18;100.00;100253.31;4960999;28;20484;-86
2023/07/01 08:58:13;;;;;;;2.05;1.85;;;;;;;16.31;100.00;100263.75;4993502;28;20030;-87
2023/07/01 09:00:39;;;;;;;2.10;1.90;;;;;;;16.28;100.00;100259.66;4962360;28;20065;-88
2023/07/01 09:03:06;;;;;;;2.65;2.30;;;;;;;16.36;100.00;100249.25;4961641;28;20062;-88
2023/07/01 09:05:32;;;;;;;2.25;2.00;;;;;;;16.46;100.00;100244.66;4977304;28;20123;-87
2023/07/01 09:07:57;;;;;;;2.75;2.03;;;;;;;16.48;100.00;100253.41;4993397;28;20061;-87
2023/07/01 09:10:23;;;;;;;2.13;1.97;;;;;;;16.55;100.00;100249.59;4995272;28;20380;-87
2023/07/01 09:12:48;;;;;;;5.93;2.50;;;;;;;16.50;100.00;100258.63;4977469;28;20398;-87
2023/07/01 09:15:14;;;;;;;1.80;1.70;;;;;;;16.45;100.00;100253.97;4993495;28;20026;-87
2023/07/01 09:17:41;;;;;;;1.63;1.53;;;;;;;16.42;100.00;100265.44;4993276;28;20030;-87
2023/07/01 09:20:11;;;;;;;2.10;1.90;;;;;;;16.38;100.00;100253.38;4994532;28;20030;-87
2023/07/01 09:22:43;;;;;;;2.70;1.92;;;;;;;16.51;100.00;100256.72;4994034;28;20176;-87
2023/07/01 09:25:09;;;;;;;2.45;2.05;;;;;;;16.63;100.00;100260.84;4995071;28;20058;-87
2023/07/01 09:27:46;;;;;;;3.43;1.90;;;;;;;16.53;100.00;100244.38;4993441;28;20069;-87
2023/07/01 09:30:20;;;;;;;3.05;2.33;;;;;;;16.65;100.00;100252.34;4976925;28;20023;-87
2023/07/01 09:32:46;;;;;;;5.25;2.08;;;;;;;16.62;100.00;100255.63;4977202;28;20060;-87
2023/07/01 09:35:12;;;;;;;2.53;2.20;;;;;;;16.65;100.00;100247.72;4976745;28;20030;-87
2023/07/01 09:37:38;;;;;;;2.70;2.50;;;;;;;16.71;100.00;100244.97;4992872;28;20041;-88
2023/07/01 09:40:20;;;;;;;2.65;2.42;;;;;;;16.76;100.00;100240.34;4977991;28;20034;-88
2023/07/01 09:42:55;;;;;;;2.90;2.70;;;;;;;16.80;100.00;100244.19;4993924;28;20034;-88
2023/07/01 09:45:21;;;;;;;2.70;2.42;;;;;;;16.85;100.00;100237.88;4992803;28;20053;-87
2023/07/01 09:47:53;;;;;;;3.47;2.57;;;;;;;16.83;100.00;100238.16;4977057;28;20483;-87
2023/07/01 09:50:29;;;;;;;3.28;2.58;;;;;;;16.92;100.00;100235.75;4993666;28;20027;-87
2023/07/01 09:52:56;;;;;;;3.40;2.50;;;;;;;16.95;100.00;100234.38;4994385;28;20136;-87
2023/07/01 09:55:24;;;;;;;2.92;2.63;;;;;;;16.95;100.00;100229.72;4992126;28;20038;-88
2023/07/01 09:57:50;;;;;;;2.87;2.30;;;;;;;16.86;100.00;100233.22;4960277;28;20061;-87
2023/07/01 10:00:16;;;;;;;2.33;2.10;;;;;;;16.85;100.00;100237.88;4993324;28;20023;-87
2023/07/01 10:02:47;;;;;;;4.68;2.60;;;;;;;16.90;100.00;100242.56;4961559;28;20092;-88
2023/07/01 10:05:14;;;;;;;2.77;2.30;;;;;;;16.89;100.00;100249.13;4992863;28;20030;-88
2023/07/01 10:07:40;;;;;;;2.47;2.28;;;;;;;16.90;100.00;100235.16;4994130;28;20038;-87
2023/07/01 10:10:21;;;;;;;2.65;2.45;;;;;;;17.03;100.00;100238.47;4976218;28;20027;-87
2023/07/01 10:12:48;;;;;;;2.30;2.10;;;;;;;16.99;100.00;100238.19;4994654;28;20053;-87
2023/07/01 10:15:25;;;;;;;2.85;2.15;;;;;;;16.96;100.00;100238.75;4994002;28;20026;-88
2023/07/01 10:17:54;;;;;;;2.50;2.20;;;;;;;16.99;100.00;100235.44;4994251;28;20027;-88
2023/07/01 10:20:36;;;;;;;2.42;2.22;;;;;;;17.05;100.00;100239.88;4960964;28;20046;-88
2023/07/01 10:23:04;;;;;;;2.97;2.35;;;;;;;17.06;100.00;100222.31;4977224;28;20042;-88
2023/07/01 10:25:35;;;;;;;3.05;2.35;;;;;;;17.13;100.00;100216.56;4992661;28;20062;-88
2023/07/01 10:28:01;;;;;;;2.97;2.67;;;;;;;17.14;100.00;100230.00;4992482;28;20045;-88
2023/07/01 10:30:41;;;;;;;3.77;2.60;;;;;;;17.09;100.00;100229.16;4976168;28;20121;-88
2023/07/01 10:33:35;;;;;;;3.15;2.72;;;;;;;17.12;100.00;100234.09;4993825;28;20034;-88
2023/07/01 10:36:07;;;;;;;3.10;2.77;;;;;;;17.16;100.00;100219.56;4977336;28;20049;-88
2023/07/01 10:38:37;;;;;;;3.80;3.00;;;;;;;17.30;100.00;100219.00;4976613;28;20053;-88
2023/07/01 10:41:05;;;;;;;3.50;3.20;;;;;;;17.39;100.00;100219.28;4992417;28;20113;-88
2023/07/01 10:43:33;;;;;;;6.50;3.72;;;;;;;17.48;100.00;100220.34;4976572;28;20027;-88
2023/07/01 10:46:23;;;;;;;4.68;3.50;;;;;;;17.62;100.00;100234.31;4994249;28;20031;-88
2023/07/01 10:49:04;;;;;;;5.00;3.60;;;;;;;17.64;100.00;100223.88;4976306;28;20113;-88
2023/07/01 10:51:45;;;;;;;4.03;3.63;;;;;;;17.64;100.00;100208.28;4994021;28;20031;-88
2023/07/01 10:54:10;;;;;;;4.88;3.15;;;;;;;17.69;100.00;100229.38;4976194;28;20039;-88
2023/07/01 10:57:01;;;;;;;4.90;3.30;;;;;;;17.70;100.00;100222.75;4993698;28;20047;-88
2023/07/01 10:59:30;;;;;;;4.13;3.63;;;;;;;17.77;100.00;100226.03;4992344;28;20451;-88
2023/07/01 11:02:00;;;;;;;4.85;3.50;;;;;;;17.90;100.00;100213.69;4945172;28;20054;-87
2023/07/01 11:04:54;;;;;;;6.68;3.53;;;;;;;18.18;100.00;100208.66;4976723;28;20493;-88
2023/07/01 11:07:25;;;;;;;4.27;3.50;;;;;;;18.55;100.00;100221.06;4998114;28;20034;-88
2023/07/01 11:09:52;;;;;;;3.83;3.40;;;;;;;18.82;100.00;100206.88;4963902;28;20379;-88
2023/07/01 11:12:18;;;;;;;4.55;3.50;;;;;;;19.07;100.00;100221.56;4996967;28;20105;-88
2023/07/01 11:14:46;;;;;;;3.75;3.10;;;;;;;19.21;100.00;100219.78;4995979;28;20062;-88
2023/07/01 11:17:17;;;;;;;3.50;3.20;;;;;;;19.59;100.00;100208.13;4997159;28;20077;-88
2023/07/01 11:19:46;;;;;;;3.40;3.10;;;;;;;20.10;100.00;100209.50;4995841;28;20030;-88
2023/07/01 11:22:15;;;;;;;3.30;2.95;;;;;;;20.28;100.00;100216.97;4980295;28;20117;-88
2023/07/01 11:24:43;;;;;;;3.28;2.90;;;;;;;20.10;100.00;100204.81;4978944;28;20073;-88